Time;durP1;ratioP1;P1;durP2;ratioP2;P2;SDS_P1;SDS_P2;PMS_P1;PMS_P2;Temp;Humidity;BMP_temperature;BMP_pressure;BME280_temperature;BME280_humidity;BME280_pressure;Samples;Min_cycle;Max_cycle;Signal;HPM_P1;HPM_P2
2022/08/31 00:06:33;;;;;;;;;;;18.20;99.90;;;;;;5024436;28;19976;-72
2022/08/31 00:09:05;;;;;;;;;;;18.20;99.90;;;;;;5010451;28;19921;-72
2022/08/31 00:11:37;;;;;;;;;;;18.20;99.90;;;;;;5026308;28;19921;-72
2022/08/31 00:14:09;;;;;;;;;;;18.20;99.90;;;;;;5017704;28;20415;-72
2022/08/31 00:16:41;;;;;;;;;;;18.20;99.90;;;;;;5022925;28;20015;-72
2022/08/31 00:19:13;;;;;;;;;;;18.10;99.90;;;;;;5012384;28;19921;-72
2022/08/31 00:21:45;;;;;;;;;;;18.00;99.90;;;;;;5022825;28;19948;-72
2022/08/31 00:24:17;;;;;;;;;;;18.00;99.90;;;;;;5012219;28;19925;-73
2022/08/31 00:26:49;;;;;;;;;;;17.90;99.90;;;;;;5022953;28;20203;-72
2022/08/31 00:29:20;;;;;;;;;;;18.00;99.90;;;;;;5007382;28;19926;-72
2022/08/31 00:31:52;;;;;;;;;;;18.00;99.90;;;;;;5037216;28;19922;-72
2022/08/31 00:34:26;;;;;;;;;;;18.10;99.90;;;;;;5012271;28;19925;-72
2022/08/31 00:36:59;;;;;;;;;;;18.10;99.90;;;;;;5027638;28;19927;-72
2022/08/31 00:39:31;;;;;;;;;;;18.20;99.90;;;;;;5005960;28;19925;-73
2022/08/31 00:42:04;;;;;;;;;;;18.20;99.90;;;;;;5015365;28;19927;-72
2022/08/31 00:44:35;;;;;;;;;;;18.30;99.90;;;;;;5013173;28;19965;-72
2022/08/31 00:47:09;;;;;;;;;;;18.30;99.90;;;;;;5012226;28;19922;-72
2022/08/31 00:49:41;;;;;;;;;;;18.30;99.90;;;;;;5004877;28;19922;-72
2022/08/31 00:52:14;;;;;;;;;;;18.40;99.90;;;;;;5011874;28;19929;-72
2022/08/31 00:54:48;;;;;;;;;;;18.30;99.90;;;;;;5008457;28;20364;-72
2022/08/31 00:57:20;;;;;;;;;;;18.30;99.90;;;;;;5024226;28;19925;-72
2022/08/31 00:59:52;;;;;;;;;;;18.40;99.90;;;;;;5003413;28;19928;-72
2022/08/31 01:02:23;;;;;;;;;;;18.40;99.90;;;;;;5021453;28;20392;-72
2022/08/31 01:04:55;;;;;;;;;;;18.30;99.90;;;;;;5006949;28;19967;-72
2022/08/31 01:07:27;;;;;;;;;;;18.30;99.90;;;;;;5022962;28;19925;-72
2022/08/31 01:09:59;;;;;;;;;;;18.30;99.90;;;;;;5011685;28;20369;-72
2022/08/31 01:12:30;;;;;;;;;;;18.30;99.90;;;;;;5013168;28;19927;-72
2022/08/31 01:15:04;;;;;;;;;;;18.40;99.90;;;;;;5005688;28;19965;-72
2022/08/31 01:17:38;;;;;;;;;;;18.40;99.90;;;;;;5009691;28;19925;-72
2022/08/31 01:20:13;;;;;;;;;;;18.30;99.90;;;;;;4995761;28;20020;-72
2022/08/31 01:22:50;;;;;;;;;;;18.30;99.90;;;;;;5002466;28;19952;-72
2022/08/31 01:25:23;;;;;;;;;;;18.30;99.90;;;;;;5004508;28;19967;-72
2022/08/31 01:27:56;;;;;;;;;;;18.30;99.90;;;;;;5011844;28;19928;-72
2022/08/31 01:30:29;;;;;;;;;;;18.20;99.90;;;;;;5013777;28;19924;-72
2022/08/31 01:33:00;;;;;;;;;;;18.20;99.90;;;;;;5022097;28;19921;-72
2022/08/31 01:35:32;;;;;;;;;;;18.20;99.90;;;;;;4994515;28;19968;-72
2022/08/31 01:38:04;;;;;;;;;;;18.20;99.90;;;;;;5013128;28;19921;-72
2022/08/31 01:40:43;;;;;;;;;;;18.20;99.90;;;;;;5005246;28;19925;-72
2022/08/31 01:43:15;;;;;;;;;;;18.20;99.90;;;;;;5002710;28;19968;-72
2022/08/31 01:45:47;;;;;;;;;;;18.20;99.90;;;;;;5012767;28;19929;-72
2022/08/31 01:48:20;;;;;;;;;;;18.20;99.90;;;;;;5012461;28;19945;-72
2022/08/31 01:50:52;;;;;;;;;;;18.20;99.90;;;;;;5010217;28;19968;-72
2022/08/31 01:53:23;;;;;;;;;;;18.10;99.90;;;;;;5012489;28;19971;-72
2022/08/31 01:55:55;;;;;;;;;;;18.00;99.90;;;;;;5001849;28;19921;-72
2022/08/31 01:58:27;;;;;;;;;;;17.90;99.90;;;;;;5002638;28;19972;-72
2022/08/31 02:01:27;;;;;;;;;;;17.90;99.90;;;;;;5019362;28;19921;-72
2022/08/31 02:03:59;;;;;;;;;;;17.80;99.90;;;;;;5011088;28;20015;-72
2022/08/31 02:06:31;;;;;;;;;;;17.80;99.90;;;;;;5020128;28;19932;-72
2022/08/31 02:09:04;;;;;;;;;;;17.80;99.90;;;;;;5000195;28;19926;-72
2022/08/31 02:11:36;;;;;;;;;;;17.80;99.90;;;;;;5005177;28;20314;-72
2022/08/31 02:14:08;;;;;;;;;;;17.80;99.90;;;;;;5012251;28;19931;-72
2022/08/31 02:16:40;;;;;;;;;;;17.80;99.90;;;;;;5002521;28;19932;-72
2022/08/31 02:19:12;;;;;;;;;;;17.80;99.90;;;;;;5021823;28;20455;-72
2022/08/31 02:21:43;;;;;;;;;;;17.80;99.90;;;;;;5002486;28;20582;-73
2022/08/31 02:24:15;;;;;;;;;;;17.80;99.90;;;;;;5011575;28;19921;-72
2022/08/31 02:26:47;;;;;;;;;;;17.90;99.90;;;;;;5010918;28;19921;-72
2022/08/31 02:29:20;;;;;;;;;;;17.90;99.90;;;;;;5001811;28;20380;-72
2022/08/31 02:31:51;;;;;;;;;;;17.80;99.90;;;;;;5005507;28;19928;-72
2022/08/31 02:34:24;;;;;;;;;;;17.80;99.90;;;;;;4999139;28;19928;-72
2022/08/31 02:36:56;;;;;;;;;;;17.80;99.90;;;;;;5013469;28;19929;-72
2022/08/31 02:39:27;;;;;;;;;;;17.80;99.90;;;;;;5007893;28;20399;-72
2022/08/31 02:41:59;;;;;;;;;;;17.80;99.90;;;;;;5004532;28;19968;-72
2022/08/31 02:44:30;;;;;;;;;;;17.70;99.90;;;;;;5001038;28;20319;-72
2022/08/31 02:47:02;;;;;;;;;;;17.70;99.90;;;;;;5012585;28;19928;-72
2022/08/31 02:49:39;;;;;;;;;;;17.70;99.90;;;;;;5009141;28;20391;-72
2022/08/31 02:52:12;;;;;;;;;;;17.70;99.90;;;;;;5005382;28;20145;-72
2022/08/31 02:54:43;;;;;;;;;;;17.60;99.90;;;;;;5012108;28;19944;-72
2022/08/31 02:57:15;;;;;;;;;;;17.60;99.90;;;;;;5037279;28;19924;-72
2022/08/31 02:59:46;;;;;;;;;;;17.60;99.90;;;;;;5037683;28;20474;-72
2022/08/31 03:02:18;;;;;;;;;;;17.60;99.90;;;;;;5004415;28;20027;-72
2022/08/31 03:04:50;;;;;;;;;;;17.60;99.90;;;;;;5009412;28;19937;-72
2022/08/31 03:07:23;;;;;;;;;;;17.50;99.90;;;;;;5008652;28;20515;-72
2022/08/31 03:09:54;;;;;;;;;;;17.50;99.90;;;;;;5010004;28;19921;-72
2022/08/31 03:12:26;;;;;;;;;;;17.50;99.90;;;;;;5004847;28;20419;-72
2022/08/31 03:14:58;;;;;;;;;;;17.50;99.90;;;;;;5001810;28;19921;-72
2022/08/31 03:17:29;;;;;;;;;;;17.50;99.90;;;;;;5011999;28;20015;-72
2022/08/31 03:20:04;;;;;;;;;;;17.50;99.90;;;;;;4999671;28;19976;-72
2022/08/31 03:22:36;;;;;;;;;;;17.50;99.90;;;;;;5005725;28;19921;-72
2022/08/31 03:25:09;;;;;;;;;;;17.50;99.90;;;;;;5006614;28;19921;-72
2022/08/31 03:27:40;;;;;;;;;;;17.50;99.90;;;;;;5010168;28;19960;-72
2022/08/31 03:30:13;;;;;;;;;;;17.50;99.90;;;;;;5022914;28;19921;-72
2022/08/31 03:32:54;;;;;;;;;;;17.50;99.90;;;;;;5001382;28;20311;-72
2022/08/31 03:35:26;;;;;;;;;;;17.40;99.90;;;;;;5015912;28;20020;-72
2022/08/31 03:38:00;;;;;;;;;;;17.50;99.90;;;;;;5013864;28;19927;-72
2022/08/31 03:40:32;;;;;;;;;;;17.40;99.90;;;;;;5037139;28;19925;-72
2022/08/31 03:43:05;;;;;;;;;;;17.40;99.90;;;;;;5013763;28;19943;-72
2022/08/31 03:45:39;;;;;;;;;;;17.50;99.90;;;;;;5007836;28;19928;-72
2022/08/31 03:48:10;;;;;;;;;;;17.50;99.90;;;;;;5016495;28;19963;-72
2022/08/31 03:50:44;;;;;;;;;;;17.40;99.90;;;;;;5005195;28;19928;-72
2022/08/31 03:53:22;;;;;;;;;;;17.40;99.90;;;;;;5012119;28;20442;-72
2022/08/31 03:56:02;;;;;;;;;;;17.40;99.90;;;;;;5013747;28;20036;-72
2022/08/31 03:58:39;;;;;;;;;;;17.50;99.90;;;;;;4996978;28;19995;-72
2022/08/31 04:01:25;;;;;;;;;;;17.40;99.90;;;;;;4988338;28;19976;-72
2022/08/31 04:04:15;;;;;;;;;;;17.40;99.90;;;;;;5023517;28;19928;-72
2022/08/31 04:07:05;;;;;;;;;;;17.40;99.90;;;;;;5020296;28;19928;-72
2022/08/31 04:09:56;;;;;;;;;;;17.40;99.90;;;;;;5025119;28;19952;-72
2022/08/31 04:12:50;;;;;;;;;;;17.40;99.90;;;;;;5018252;28;19956;-72
2022/08/31 04:15:36;;;;;;;;;;;17.30;99.90;;;;;;5003908;28;19929;-72
2022/08/31 04:18:46;;;;;;;;;;;17.40;99.90;;;;;;5025345;28;20308;-73
2022/08/31 04:21:19;;;;;;;;;;;17.30;99.90;;;;;;5025569;28;19922;-72
2022/08/31 04:23:52;;;;;;;;;;;17.30;99.90;;;;;;5014365;28;20371;-72
2022/08/31 04:26:29;;;;;;;;;;;17.30;99.90;;;;;;5013585;28;19925;-72
2022/08/31 04:29:01;;;;;;;;;;;17.30;99.90;;;;;;5032577;28;20363;-72
2022/08/31 04:31:33;;;;;;;;;;;17.30;99.90;;;;;;5023444;28;19968;-72
2022/08/31 04:34:05;;;;;;;;;;;17.40;99.90;;;;;;5028870;28;19925;-72
2022/08/31 04:36:38;;;;;;;;;;;17.30;99.90;;;;;;5006802;28;19927;-72
2022/08/31 04:39:10;;;;;;;;;;;17.40;99.90;;;;;;5013079;28;19925;-72
2022/08/31 04:41:42;;;;;;;;;;;17.30;99.90;;;;;;5008090;28;19971;-72
2022/08/31 04:44:14;;;;;;;;;;;17.30;99.90;;;;;;5013306;28;20270;-72
2022/08/31 04:46:47;;;;;;;;;;;17.30;99.90;;;;;;5012262;28;19964;-72
2022/08/31 04:49:19;;;;;;;;;;;17.30;99.90;;;;;;5009581;28;20398;-72
2022/08/31 04:51:51;;;;;;;;;;;17.30;99.90;;;;;;5012043;28;20376;-72
2022/08/31 04:54:23;;;;;;;;;;;17.30;99.90;;;;;;5010326;28;19921;-72
2022/08/31 04:56:55;;;;;;;;;;;17.20;99.90;;;;;;5012511;28;20004;-72
2022/08/31 04:59:30;;;;;;;;;;;17.20;99.90;;;;;;5016537;28;19972;-72
2022/08/31 05:02:20;;;;;;;;;;;17.10;99.90;;;;;;5039497;28;19935;-73
2022/08/31 05:04:59;;;;;;;;;;;17.20;99.90;;;;;;5038054;28;19922;-73
2022/08/31 05:07:31;;;;;;;;;;;17.20;99.90;;;;;;5012759;28;19929;-73
2022/08/31 05:10:03;;;;;;;;;;;17.20;99.90;;;;;;4998623;28;19943;-73
2022/08/31 05:12:35;;;;;;;;;;;17.20;99.90;;;;;;4996394;28;19921;-73
2022/08/31 05:15:07;;;;;;;;;;;17.20;99.90;;;;;;4998055;28;19956;-73
2022/08/31 05:17:39;;;;;;;;;;;17.10;99.90;;;;;;5006542;28;19949;-72
2022/08/31 05:20:11;;;;;;;;;;;17.10;99.90;;;;;;5012386;28;20019;-73
2022/08/31 05:22:43;;;;;;;;;;;17.10;99.90;;;;;;5002291;28;19925;-73
2022/08/31 05:25:15;;;;;;;;;;;17.10;99.90;;;;;;5012050;28;19925;-73
2022/08/31 05:27:47;;;;;;;;;;;17.10;99.90;;;;;;5037849;28;20028;-73
2022/08/31 05:30:18;;;;;;;;;;;17.10;99.90;;;;;;5010293;28;19921;-72
2022/08/31 05:33:01;;;;;;;;;;;17.20;99.90;;;;;;4998541;28;20430;-73
2022/08/31 05:35:33;;;;;;;;;;;17.20;99.90;;;;;;5013696;28;19928;-73
2022/08/31 05:38:05;;;;;;;;;;;17.20;99.90;;;;;;5005727;28;19921;-72
2022/08/31 05:40:36;;;;;;;;;;;17.20;99.90;;;;;;5007188;28;20402;-73
2022/08/31 05:43:08;;;;;;;;;;;17.20;99.90;;;;;;5022075;28;19931;-73
2022/08/31 05:45:43;;;;;;;;;;;17.20;99.90;;;;;;5012759;28;19924;-73
2022/08/31 05:48:15;;;;;;;;;;;17.20;99.90;;;;;;5003302;28;19956;-73
2022/08/31 05:50:47;;;;;;;;;;;17.20;99.90;;;;;;5011080;28;20371;-73
2022/08/31 05:53:19;;;;;;;;;;;17.20;99.90;;;;;;5034868;28;20371;-73
2022/08/31 05:55:57;;;;;;;;;;;17.10;99.90;;;;;;5005257;28;19948;-73
2022/08/31 05:58:29;;;;;;;;;;;17.20;99.90;;;;;;5005096;28;19928;-72
2022/08/31 06:01:02;;;;;;;;;;;17.20;99.90;;;;;;5002161;28;20356;-73
2022/08/31 06:03:54;;;;;;;;;;;17.20;99.90;;;;;;5006234;28;19975;-73
2022/08/31 06:06:26;;;;;;;;;;;17.20;99.90;;;;;;4995344;28;19925;-73
2022/08/31 06:08:58;;;;;;;;;;;17.20;99.90;;;;;;5011179;28;19921;-73
2022/08/31 06:11:30;;;;;;;;;;;17.20;99.90;;;;;;5016149;28;19948;-73
2022/08/31 06:14:03;;;;;;;;;;;17.20;99.90;;;;;;5010377;28;19925;-73
2022/08/31 06:16:35;;;;;;;;;;;17.30;99.90;;;;;;5002282;28;20343;-73
2022/08/31 06:19:07;;;;;;;;;;;17.20;99.90;;;;;;5009303;28;20020;-73
2022/08/31 06:21:41;;;;;;;;;;;17.20;99.90;;;;;;5023576;28;19982;-73
2022/08/31 06:24:13;;;;;;;;;;;17.20;99.90;;;;;;4993863;28;19972;-73
2022/08/31 06:26:54;;;;;;;;;;;17.30;99.90;;;;;;4991189;28;19984;-73
2022/08/31 06:29:30;;;;;;;;;;;17.40;99.90;;;;;;5039939;28;19925;-73
2022/08/31 06:32:06;;;;;;;;;;;17.40;99.90;;;;;;5011187;28;20391;-73
2022/08/31 06:34:41;;;;;;;;;;;17.40;99.90;;;;;;5009463;28;19967;-73
2022/08/31 06:37:42;;;;;;;;;;;17.50;99.90;;;;;;5015176;28;19921;-73
2022/08/31 06:40:38;;;;;;;;;;;17.60;99.90;;;;;;5018366;28;19928;-73
2022/08/31 06:43:28;;;;;;;;;;;17.60;99.90;;;;;;5021249;28;19921;-73
2022/08/31 06:46:10;;;;;;;;;;;17.70;99.90;;;;;;5022673;28;19931;-73
2022/08/31 06:49:05;;;;;;;;;;;17.70;99.90;;;;;;5014437;28;20007;-73
2022/08/31 06:51:37;;;;;;;;;;;17.80;99.90;;;;;;4998446;28;20368;-73
2022/08/31 06:54:10;;;;;;;;;;;17.90;99.90;;;;;;4999472;28;19979;-73
2022/08/31 06:57:01;;;;;;;;;;;17.90;99.90;;;;;;5030135;28;20533;-73
2022/08/31 06:59:52;;;;;;;;;;;17.80;99.90;;;;;;5026835;28;20233;-73
2022/08/31 07:02:46;;;;;;;;;;;17.90;99.90;;;;;;5013279;28;19925;-73
2022/08/31 07:05:17;;;;;;;;;;;18.00;99.90;;;;;;5004585;28;19925;-73
2022/08/31 07:07:50;;;;;;;;;;;18.00;99.90;;;;;;5030720;28;19968;-73
2022/08/31 07:10:22;;;;;;;;;;;18.00;99.90;;;;;;5020177;28;20358;-72
2022/08/31 07:12:53;;;;;;;;;;;18.00;99.90;;;;;;5016845;28;19921;-73
2022/08/31 07:15:25;;;;;;;;;;;18.00;99.90;;;;;;5032054;28;19921;-73
2022/08/31 07:17:57;;;;;;;;;;;18.00;99.90;;;;;;5011870;28;19980;-73
2022/08/31 07:20:29;;;;;;;;;;;18.00;99.90;;;;;;5039499;28;19925;-73
2022/08/31 07:23:01;;;;;;;;;;;18.00;99.90;;;;;;5015029;28;19925;-72
2022/08/31 07:25:46;;;;;;;;;;;18.10;99.90;;;;;;5012473;28;19957;-73
2022/08/31 07:28:18;;;;;;;;;;;18.10;99.90;;;;;;5038718;28;19933;-73
2022/08/31 07:30:49;;;;;;;;;;;18.00;99.90;;;;;;5022072;28;20763;-73
2022/08/31 07:33:21;;;;;;;;;;;18.10;99.90;;;;;;5008840;28;19927;-73
2022/08/31 07:35:56;;;;;;;;;;;18.10;99.90;;;;;;4996768;28;19929;-72
2022/08/31 07:44:40;;;;;;;;;;;18.10;99.90;;;;;;5013579;28;19925;-72
2022/08/31 07:47:13;;;;;;;;;;;18.10;99.90;;;;;;5024908;28;19925;-73
2022/08/31 07:49:52;;;;;;;;;;;18.20;99.90;;;;;;5013183;28;19944;-73
2022/08/31 07:52:52;;;;;;;;;;;18.20;99.90;;;;;;4998416;28;19925;-73
2022/08/31 07:55:59;;;;;;;;;;;18.20;99.90;;;;;;5004882;28;19925;-73
2022/08/31 07:58:38;;;;;;;;;;;18.30;99.90;;;;;;5014991;28;19983;-73
2022/08/31 08:01:10;;;;;;;;;;;18.20;99.90;;;;;;5007726;28;19925;-73
2022/08/31 08:03:45;;;;;;;;;;;18.30;99.90;;;;;;5006412;28;19956;-73
2022/08/31 08:06:35;;;;;;;;;;;18.30;99.90;;;;;;5020295;28;19933;-73
2022/08/31 08:09:15;;;;;;;;;;;18.30;99.90;;;;;;5005990;28;20416;-73
2022/08/31 08:12:07;;;;;;;;;;;18.40;99.90;;;;;;5002054;28;20269;-73
2022/08/31 08:15:17;;;;;;;;;;;18.40;99.90;;;;;;5016009;28;20019;-72
2022/08/31 08:18:16;;;;;;;;;;;18.40;99.90;;;;;;5014411;28;19921;-73
2022/08/31 08:20:52;;;;;;;;;;;18.40;99.90;;;;;;5005452;28;19933;-72
2022/08/31 08:23:24;;;;;;;;;;;18.40;99.90;;;;;;5012104;28;19932;-72
2022/08/31 08:26:28;;;;;;;;;;;18.30;99.90;;;;;;5007247;28;19926;-72
2022/08/31 08:29:09;;;;;;;;;;;18.30;99.90;;;;;;5012278;28;20277;-73
2022/08/31 08:31:42;;;;;;;;;;;18.40;99.90;;;;;;5009396;28;19921;-73
2022/08/31 08:34:14;;;;;;;;;;;18.40;99.90;;;;;;5014676;28;19968;-73
2022/08/31 08:36:46;;;;;;;;;;;18.40;99.90;;;;;;5004605;28;20016;-73
2022/08/31 08:39:18;;;;;;;;;;;18.50;99.90;;;;;;5012835;28;19975;-73
2022/08/31 08:42:01;;;;;;;;;;;18.40;99.90;;;;;;5006054;28;20011;-72
2022/08/31 08:44:33;;;;;;;;;;;18.30;99.90;;;;;;5012831;28;19928;-73
2022/08/31 08:47:06;;;;;;;;;;;18.20;99.90;;;;;;5008532;28;19921;-73
2022/08/31 08:49:44;;;;;;;;;;;18.10;99.90;;;;;;5011967;28;19921;-73
2022/08/31 08:52:21;;;;;;;;;;;18.10;99.90;;;;;;5041956;28;19932;-73
2022/08/31 08:54:55;;;;;;;;;;;18.00;99.90;;;;;;5013922;28;19929;-73
2022/08/31 08:57:30;;;;;;;;;;;18.00;99.90;;;;;;5012614;28;19967;-73
2022/08/31 09:00:08;;;;;;;;;;;18.00;99.90;;;;;;5027666;28;20800;-73
2022/08/31 09:02:57;;;;;;;;;;;18.00;99.90;;;;;;5013025;28;20442;-73
2022/08/31 09:05:53;;;;;;;;;;;18.00;99.90;;;;;;5023007;28;20681;-73
2022/08/31 09:08:31;;;;;;;;;;;18.00;99.90;;;;;;5012058;28;19921;-73
2022/08/31 09:11:05;;;;;;;;;;;18.00;99.90;;;;;;5011611;28;19925;-72
2022/08/31 09:13:42;;;;;;;;;;;18.00;99.90;;;;;;5003155;28;19921;-73
2022/08/31 09:16:27;;;;;;;;;;;18.10;99.90;;;;;;4996988;28;19976;-73
2022/08/31 09:19:01;;;;;;;;;;;18.10;99.90;;;;;;4990090;28;19925;-73
2022/08/31 09:21:52;;;;;;;;;;;18.10;99.90;;;;;;5015090;28;20036;-73
2022/08/31 09:24:26;;;;;;;;;;;18.20;99.90;;;;;;5012709;28;19921;-73
2022/08/31 09:27:19;;;;;;;;;;;18.10;99.90;;;;;;5006830;28;20287;-73
2022/08/31 09:29:50;;;;;;;;;;;18.20;99.90;;;;;;5025513;28;19921;-74
2022/08/31 09:32:24;;;;;;;;;;;18.20;99.90;;;;;;5031407;28;19925;-74
2022/08/31 09:35:14;;;;;;;;;;;18.20;99.90;;;;;;5023243;28;19959;-74
2022/08/31 09:37:55;;;;;;;;;;;18.20;99.90;;;;;;5011696;28;19925;-73
2022/08/31 09:40:35;;;;;;;;;;;18.30;99.90;;;;;;5018513;28;19925;-74
2022/08/31 09:43:13;;;;;;;;;;;18.20;99.90;;;;;;5022308;28;20412;-73
2022/08/31 09:45:52;;;;;;;;;;;18.30;99.90;;;;;;5035282;28;19971;-74
2022/08/31 09:48:50;;;;;;;;;;;18.30;99.90;;;;;;5023582;28;20556;-73
2022/08/31 09:51:36;;;;;;;;;;;18.40;99.90;;;;;;4993092;28;19921;-74
2022/08/31 09:57:09;;;;;;;;;;;18.60;99.90;;;;;;5022777;28;20545;-74
2022/08/31 09:59:42;;;;;;;;;;;18.60;99.90;;;;;;5009246;28;19925;-74
2022/08/31 10:02:25;;;;;;;;;;;18.70;99.90;;;;;;5010535;28;19936;-73
2022/08/31 10:04:59;;;;;;;;;;;18.80;99.90;;;;;;5020478;28;19927;-74
2022/08/31 10:07:36;;;;;;;;;;;18.90;99.90;;;;;;5010667;28;19935;-74
2022/08/31 10:10:13;;;;;;;;;;;18.90;99.90;;;;;;5018044;28;19925;-73
2022/08/31 10:12:51;;;;;;;;;;;18.90;99.90;;;;;;5025139;28;20295;-74
2022/08/31 10:15:27;;;;;;;;;;;18.90;99.90;;;;;;5021981;28;19931;-73
2022/08/31 10:18:10;;;;;;;;;;;18.80;99.90;;;;;;5013241;28;19921;-72
2022/08/31 10:20:47;;;;;;;;;;;18.80;99.90;;;;;;5020574;28;20392;-74
2022/08/31 10:23:33;;;;;;;;;;;18.80;99.90;;;;;;5021491;28;19966;-74
2022/08/31 10:26:25;;;;;;;;;;;18.80;99.90;;;;;;5035786;28;19921;-73
2022/08/31 10:28:59;;;;;;;;;;;18.80;99.90;;;;;;4997037;28;19932;-73
2022/08/31 10:31:44;;;;;;;;;;;18.80;99.90;;;;;;5016957;28;19964;-74
2022/08/31 10:37:30;;;;;;;;;;;18.80;99.90;;;;;;5017294;28;19921;-73
2022/08/31 10:40:05;;;;;;;;;;;18.80;99.90;;;;;;5007352;28;20287;-73
2022/08/31 10:42:40;;;;;;;;;;;18.70;99.90;;;;;;5026308;28;19920;-73
2022/08/31 10:45:16;;;;;;;;;;;18.70;99.90;;;;;;5021745;28;19921;-73
2022/08/31 10:47:50;;;;;;;;;;;18.50;99.90;;;;;;5030487;28;19926;-73
2022/08/31 10:50:47;;;;;;;;;;;18.50;99.90;;;;;;5031699;28;20023;-73
2022/08/31 10:53:21;;;;;;;;;;;18.50;99.90;;;;;;4996365;28;20403;-73
2022/08/31 10:56:02;;;;;;;;;;;18.40;99.90;;;;;;5031619;28;19925;-74
2022/08/31 10:58:43;;;;;;;;;;;18.30;99.90;;;;;;4998399;28;20408;-73
2022/08/31 11:01:31;;;;;;;;;;;18.30;99.90;;;;;;5022028;28;19936;-73
2022/08/31 11:04:18;;;;;;;;;;;18.30;99.90;;;;;;5013925;28;19931;-73
2022/08/31 11:07:05;;;;;;;;;;;18.20;99.90;;;;;;5010665;28;19931;-72
2022/08/31 11:10:00;;;;;;;;;;;18.30;99.90;;;;;;5016569;28;19926;-72
2022/08/31 11:12:41;;;;;;;;;;;18.20;99.90;;;;;;5011482;28;19947;-72
2022/08/31 11:15:12;;;;;;;;;;;18.30;99.90;;;;;;5011581;28;19947;-72
2022/08/31 11:17:48;;;;;;;;;;;18.30;99.90;;;;;;5010882;28;19929;-72
2022/08/31 11:20:38;;;;;;;;;;;18.20;99.90;;;;;;5004847;28;19925;-72
2022/08/31 11:23:10;;;;;;;;;;;18.20;99.90;;;;;;5022504;28;20332;-72
2022/08/31 11:26:00;;;;;;;;;;;18.20;99.90;;;;;;5026689;28;19921;-72
2022/08/31 11:28:35;;;;;;;;;;;18.30;99.90;;;;;;5015872;28;19971;-72
2022/08/31 11:31:13;;;;;;;;;;;18.20;99.90;;;;;;5016587;28;20012;-73
2022/08/31 11:33:49;;;;;;;;;;;18.20;99.90;;;;;;5014205;28;20357;-73
2022/08/31 11:36:39;;;;;;;;;;;18.20;99.90;;;;;;5014027;28;20390;-73
2022/08/31 11:39:06;;;;;;;;;;;18.30;99.90;;;;;;5026852;28;19925;-73
2022/08/31 11:41:48;;;;;;;;;;;18.30;99.90;;;;;;5031890;28;19925;-73
2022/08/31 11:44:29;;;;;;;;;;;18.40;99.90;;;;;;4996760;28;20373;-73
2022/08/31 11:47:05;;;;;;;;;;;18.30;99.90;;;;;;5023954;28;19944;-73
2022/08/31 11:49:37;;;;;;;;;;;18.40;99.90;;;;;;5028836;28;19921;-73
2022/08/31 11:52:24;;;;;;;;;;;18.30;99.90;;;;;;5027396;28;19925;-73
2022/08/31 11:54:58;;;;;;;;;;;18.30;99.90;;;;;;5031020;28;20379;-73
2022/08/31 11:57:30;;;;;;;;;;;18.20;99.90;;;;;;5029418;28;20435;-73
2022/08/31 12:00:16;;;;;;;;;;;18.20;99.90;;;;;;5013572;28;19925;-74
2022/08/31 12:03:01;;;;;;;;;;;18.20;99.90;;;;;;5014509;28;19925;-73
2022/08/31 12:05:40;;;;;;;;;;;18.10;99.90;;;;;;4988727;28;19922;-73
2022/08/31 12:08:14;;;;;;;;;;;18.10;99.90;;;;;;5018072;28;19931;-73
2022/08/31 12:10:51;;;;;;;;;;;18.10;99.90;;;;;;4997292;28;20387;-73
2022/08/31 12:13:47;;;;;;;;;;;18.20;99.90;;;;;;5012265;28;20597;-74
2022/08/31 12:16:19;;;;;;;;;;;18.20;99.90;;;;;;5015013;28;19927;-74
2022/08/31 12:19:00;;;;;;;;;;;18.20;99.90;;;;;;5027662;28;19921;-73
2022/08/31 12:24:37;;;;;;;;;;;18.40;99.90;;;;;;5025237;28;19921;-74
2022/08/31 12:27:12;;;;;;;;;;;18.50;99.90;;;;;;5014998;28;19999;-74
2022/08/31 12:29:44;;;;;;;;;;;18.60;99.90;;;;;;5004220;28;20380;-73
2022/08/31 12:32:15;;;;;;;;;;;18.60;99.90;;;;;;5012762;28;19928;-73
2022/08/31 12:34:55;;;;;;;;;;;18.60;99.90;;;;;;5008026;28;20016;-73
2022/08/31 12:37:27;;;;;;;;;;;18.70;99.90;;;;;;5004370;28;19921;-73
2022/08/31 12:40:05;;;;;;;;;;;18.70;99.90;;;;;;5005169;28;20391;-73
2022/08/31 12:42:39;;;;;;;;;;;18.80;99.90;;;;;;5036627;28;19975;-73
2022/08/31 12:45:11;;;;;;;;;;;18.90;99.90;;;;;;5023991;28;19928;-73
2022/08/31 12:48:03;;;;;;;;;;;19.00;99.90;;;;;;5017746;28;19928;-73
2022/08/31 12:50:42;;;;;;;;;;;19.00;99.90;;;;;;5028554;28;19925;-73
2022/08/31 12:53:32;;;;;;;;;;;19.00;99.90;;;;;;5018985;28;19931;-73
2022/08/31 12:56:09;;;;;;;;;;;19.00;99.90;;;;;;5013947;28;20277;-73
2022/08/31 12:59:04;;;;;;;;;;;19.10;99.90;;;;;;5025048;28;19961;-72
2022/08/31 13:01:40;;;;;;;;;;;19.10;99.90;;;;;;5021622;28;19928;-73
2022/08/31 13:04:13;;;;;;;;;;;19.00;99.90;;;;;;5011851;28;20371;-72
2022/08/31 13:06:47;;;;;;;;;;;19.10;99.90;;;;;;5042326;28;20411;-72
2022/08/31 13:09:29;;;;;;;;;;;19.20;99.90;;;;;;5029359;28;19921;-72
2022/08/31 13:12:01;;;;;;;;;;;19.30;99.90;;;;;;5015587;28;20019;-72
2022/08/31 13:14:40;;;;;;;;;;;19.40;99.90;;;;;;5029069;28;19927;-73
2022/08/31 13:17:14;;;;;;;;;;;19.50;99.90;;;;;;5026219;28;19932;-72
2022/08/31 13:19:50;;;;;;;;;;;19.60;99.90;;;;;;5019525;28;19921;-72
2022/08/31 13:22:38;;;;;;;;;;;19.60;99.90;;;;;;5022067;28;19921;-72
2022/08/31 13:25:40;;;;;;;;;;;19.60;99.90;;;;;;5029229;28;19924;-72
2022/08/31 13:28:13;;;;;;;;;;;19.60;99.90;;;;;;5016360;28;19921;-72
2022/08/31 13:30:53;;;;;;;;;;;19.70;99.90;;;;;;5014229;28;19932;-72
2022/08/31 13:33:30;;;;;;;;;;;19.60;99.90;;;;;;5013264;28;19928;-73
2022/08/31 13:36:08;;;;;;;;;;;19.60;99.90;;;;;;5015392;28;19937;-72
2022/08/31 13:38:47;;;;;;;;;;;19.60;99.90;;;;;;5025355;28;19963;-73
2022/08/31 13:41:26;;;;;;;;;;;19.60;99.90;;;;;;5022772;28;19925;-72
2022/08/31 13:44:00;;;;;;;;;;;19.60;99.90;;;;;;5011563;28;19975;-72
2022/08/31 13:46:34;;;;;;;;;;;19.50;99.90;;;;;;5026730;28;20280;-72
2022/08/31 13:49:06;;;;;;;;;;;19.50;99.90;;;;;;4997465;28;19933;-72
2022/08/31 13:51:39;;;;;;;;;;;19.50;99.90;;;;;;5014229;28;19927;-72
2022/08/31 13:54:25;;;;;;;;;;;19.60;99.90;;;;;;5030153;28;20040;-72
2022/08/31 13:57:07;;;;;;;;;;;19.70;99.90;;;;;;4998817;28;19964;-72
2022/08/31 13:59:39;;;;;;;;;;;19.70;99.90;;;;;;5013019;28;20292;-72
2022/08/31 14:02:14;;;;;;;;;;;19.90;99.90;;;;;;5021662;28;20319;-72
2022/08/31 14:04:47;;;;;;;;;;;20.00;99.90;;;;;;5019265;28;19921;-73
2022/08/31 14:07:20;;;;;;;;;;;20.20;99.90;;;;;;5015496;28;19944;-72
2022/08/31 14:09:57;;;;;;;;;;;20.30;99.90;;;;;;5027368;28;19932;-72
2022/08/31 14:12:34;;;;;;;;;;;20.40;99.90;;;;;;5012387;28;19925;-72
2022/08/31 14:15:32;;;;;;;;;;;20.60;99.90;;;;;;5007651;28;19931;-72
2022/08/31 14:18:15;;;;;;;;;;;20.90;99.90;;;;;;5025712;28;19964;-72
2022/08/31 14:21:08;;;;;;;;;;;21.10;99.90;;;;;;5002913;28;19921;-72
2022/08/31 14:23:40;;;;;;;;;;;21.10;99.90;;;;;;5019522;28;19932;-72
2022/08/31 14:26:14;;;;;;;;;;;21.00;99.90;;;;;;5012744;28;19932;-72
2022/08/31 14:28:48;;;;;;;;;;;20.90;99.90;;;;;;5015051;28;19922;-72
2022/08/31 14:31:31;;;;;;;;;;;20.80;99.90;;;;;;5030364;28;19921;-72
2022/08/31 14:34:21;;;;;;;;;;;20.80;99.90;;;;;;5010868;28;19932;-72
2022/08/31 14:37:01;;;;;;;;;;;20.80;99.90;;;;;;5041501;28;19921;-72
2022/08/31 14:39:44;;;;;;;;;;;21.10;99.90;;;;;;5023375;28;19943;-72
2022/08/31 14:42:17;;;;;;;;;;;21.10;99.90;;;;;;5028678;28;19932;-72
2022/08/31 14:44:55;;;;;;;;;;;21.20;99.90;;;;;;5006115;28;20285;-72
2022/08/31 14:47:26;;;;;;;;;;;21.20;99.90;;;;;;5016040;28;20406;-72
2022/08/31 14:50:04;;;;;;;;;;;21.20;99.90;;;;;;5028882;28;19975;-72
2022/08/31 14:52:38;;;;;;;;;;;21.20;99.90;;;;;;5027269;28;19929;-72
2022/08/31 14:55:10;;;;;;;;;;;21.20;99.90;;;;;;5013842;28;20000;-72
2022/08/31 14:57:42;;;;;;;;;;;21.30;99.90;;;;;;5019277;28;20405;-72
2022/08/31 15:00:21;;;;;;;;;;;21.70;99.90;;;;;;5025598;28;19972;-72
2022/08/31 15:02:53;;;;;;;;;;;22.40;99.90;;;;;;5023178;28;19927;-72
2022/08/31 15:05:25;;;;;;;;;;;23.10;99.90;;;;;;5023926;28;19924;-72
2022/08/31 15:07:56;;;;;;;;;;;23.40;99.90;;;;;;5009203;28;19940;-72
2022/08/31 15:10:28;;;;;;;;;;;23.60;99.90;;;;;;5029447;28;19969;-72
2022/08/31 15:13:04;;;;;;;;;;;24.10;99.90;;;;;;5030295;28;19931;-73
2022/08/31 15:15:36;;;;;;;;;;;24.50;99.90;;;;;;5017105;28;19928;-72
2022/08/31 15:18:08;;;;;;;;;;;24.60;99.90;;;;;;5004202;28;19929;-72
2022/08/31 15:20:40;;;;;;;;;;;24.40;99.90;;;;;;5023001;28;19925;-72
2022/08/31 15:23:14;;;;;;;;;;;24.20;99.90;;;;;;5026235;28;19979;-72
2022/08/31 15:25:46;;;;;;;;;;;24.60;99.90;;;;;;5027227;28;19928;-73
2022/08/31 15:28:18;;;;;;;;;;;25.30;99.90;;;;;;5018360;28;19921;-73
2022/08/31 15:30:49;;;;;;;;;;;25.90;99.90;;;;;;5026940;28;20384;-73
2022/08/31 15:33:22;;;;;;;;;;;26.40;99.90;;;;;;5016294;28;19928;-72